Station: Port Augusta

  Atmospheric Gas Attenuation - ITU Rec 676-11   --------------- db/100km ---------------
Date Time Temp RH % AH g/m3 Dew Point Wind Direction Speed kph Gust kph Barometer mB Rainfall Since 9am 24GHz 47GHz 76GHz 122GHz 134GHz 241GHz
24 19:40 39.9 8 4.07 -0.5 22 26 1000.2 0 9.3 14.3 16.8 43.5 31.6 106.5
24 19:30 40 8 4.09 -0.5 26 35 1000 0 9.3 14.3 16.8 43.6 31.7 106.9
24 19:20 40.2 8 4.13 -0.3 26 30 999.7 0 9.4 14.3 16.9 43.7 31.9 107.8
24 19:10 40.4 8 4.17 -0.2 24 26 999.7 0 9.5 14.4 16.9 43.9 32.2 108.7
24 19:00 40.5 8 4.19 -0.1 30 35 999.7 0 9.5 14.4 17.0 44.0 32.3 109.1
24 18:50 41.2 8 4.34 0.4 22 30 999.5 0 9.8 14.4 17.2 44.6 33.2 112.4
24 18:40 41.7 8 4.45 0.8 11 13 999.3 0 10.0 14.4 17.4 45.0 33.9 114.8
24 18:30 41.9 8 4.49 0.9 17 22 999.4 0 10.1 14.4 17.4 45.2 34.1 115.6
24 18:20 42.4 8 4.6 1.3 17 20 999.3 0 10.3 14.5 17.6 45.6 34.8 118.0
24 18:10 42.2 8 4.56 1.1 17 22 999.4 0 10.2 14.5 17.5 45.4 34.6 117.2
24 18:00 42.4 8 4.6 1.3 11 19 999.5 0 10.3 14.5 17.6 45.6 34.8 118.1
24 17:50 42 8 4.51 1 11 11 999.5 0 10.1 14.5 17.4 45.2 34.2 116.1
24 17:40 42.5 8 4.63 1.3 19 28 999.5 0 10.3 14.5 17.6 45.7 35.0 118.8
24 17:30 42.5 8 4.63 1.3 15 28 999.7 0 10.3 14.5 17.6 45.8 35.0 118.8
24 17:20 43 8 4.74 1.7 22 22 999.8 0 10.6 14.5 17.8 46.2 35.7 121.2
24 17:10 43 8 4.74 1.7 19 22 999.8 0 10.6 14.5 17.8 46.2 35.7 121.2
24 17:00 42.7 8 4.67 1.5 19 32 1000 0 10.4 14.5 17.7 45.9 35.2 119.6
24 16:50 43 8 4.74 1.7 26 30 1000 0 10.6 14.5 17.8 46.2 35.7 121.2
24 16:40 42.6 8 4.65 1.4 17 20 1000.1 0 10.4 14.5 17.7 45.9 35.1 119.2
24 16:30 42.6 8 4.65 1.4 11 20 1000.3 0 10.4 14.5 17.7 45.9 35.1 119.3
24 16:20 42.9 8 4.72 1.6 7 9 1000.3 0 10.5 14.6 17.8 46.2 35.6 120.8
24 16:10 42.9 8 4.72 1.6 11 13 1000.5 0 10.5 14.6 17.8 46.2 35.6 120.8
24 16:00 43.2 8 4.79 1.9 13 30 1000.7 0 10.6 14.6 17.9 46.5 36.0 122.4
24 15:50 43.3 7 4.21 0.1 30 33 1000.8 0 9.5 14.0 16.5 42.8 31.5 106.4
24 15:40 43.5 8 4.86 2.1 15 17 1000.8 0 10.8 14.6 18.0 46.8 36.4 123.9
24 15:30 43.8 8 4.93 2.3 20 33 1001.1 0 10.9 14.6 18.1 47.1 36.9 125.5
24 15:20 43.4 8 4.84 2 20 26 1001.1 0 10.7 14.6 18.0 46.7 36.3 123.5
24 15:10 44.1 8 5 2.5 20 26 1001.2 0 11.0 14.7 18.2 47.4 37.3 127.0
24 15:00 44.3 8 5.05 2.7 24 37 1001.5 0 11.1 14.7 18.3 47.6 37.6 128.1
24 14:50 43.9 8 4.96 2.4 20 26 1001.6 0 11.0 14.7 18.2 47.2 37.1 126.2
24 14:40 43.4 8 4.84 2 20 24 1001.7 0 10.7 14.6 18.0 46.7 36.3 123.6
24 14:30 44.4 8 5.08 2.7 28 39 1001.9 0 11.2 14.7 18.4 47.7 37.8 128.8
24 14:20 44.4 8 5.08 2.7 26 30 1001.9 0 11.2 14.7 18.4 47.7 37.8 128.8
24 14:10 43.7 8 4.91 2.2 28 35 1002.1 0 10.9 14.7 18.1 47.0 36.8 125.2
24 14:00 42.8 8 4.7 1.6 32 46 1002.4 0 10.5 14.6 17.8 46.2 35.5 120.6
24 13:50 43.7 8 4.91 2.2 24 33 1002.3 0 10.9 14.7 18.1 47.1 36.8 125.2
24 13:40 43.7 8 4.91 2.2 30 33 1002.6 0 10.9 14.7 18.1 47.1 36.8 125.2
24 13:30 43.4 8 4.84 2 24 39 1002.9 0 10.7 14.7 18.0 46.8 36.4 123.7
24 13:20 42.7 9 5.26 3.1 28 33 1002.9 0 11.6 15.2 19.2 49.9 40.0 136.5
24 13:10 42.9 9 5.31 3.3 28 33 1003.1 0 11.7 15.2 19.3 50.1 40.3 137.6
24 13:00 42.2 9 5.13 2.8 28 41 1003.4 0 11.4 15.1 19.0 49.3 39.2 133.6
24 12:50 42.1 9 5.1 2.7 33 39 1003.4 0 11.3 15.1 18.9 49.2 39.0 132.9
24 12:40 43.4 8 4.84 2 24 32 1003.5 0 10.7 14.7 18.0 46.8 36.4 123.8
24 12:30 43 8 4.74 1.7 30 41 1003.7 0 10.6 14.6 17.9 46.4 35.8 121.6
24 12:20 42.5 9 5.21 3 24 26 1003.7 0 11.5 15.2 19.1 49.7 39.7 135.5
24 12:10 42.2 9 5.13 2.8 30 35 1003.8 0 11.4 15.1 19.0 49.4 39.2 133.7
24 12:00 42.2 9 5.13 2.8 35 46 1004 0 11.4 15.2 19.0 49.4 39.2 133.7
24 11:50 42.8 10 5.87 4.7 26 32 1004.1 0 12.8 15.8 20.7 53.9 45.0 153.9
24 11:40 41.7 10 5.56 3.9 35 39 1004.3 0 12.2 15.7 20.2 52.5 43.0 146.8
24 11:30 41.1 10 5.4 3.4 35 44 1004.5 0 11.9 15.6 19.9 51.8 42.0 143.2
24 11:20 41 11 5.91 4.7 32 35 1004.4 0 13.0 16.1 21.2 55.3 46.2 158.3
24 11:10 41.8 10 5.59 4 35 41 1004.4 0 12.3 15.7 20.2 52.7 43.2 147.6
24 11:00 41.6 10 5.53 3.8 35 44 1004.6 0 12.2 15.7 20.1 52.4 42.8 146.2
24 10:50 41.5 10 5.51 3.7 32 39 1004.5 0 12.1 15.7 20.1 52.3 42.7 145.8
24 10:40 41 10 5.37 3.4 37 43 1004.5 0 11.9 15.6 19.9 51.7 41.8 142.5
24 10:30 40.1 10 5.13 2.7 19 28 1004.7 0 11.4 15.5 19.5 50.6 40.2 137.0
24 10:20 39.5 9 4.48 0.8 17 19 1004.7 0 10.1 14.9 18.0 46.6 35.2 119.1
24 10:10 38.1 9 4.18 -0.3 15 17 1004.8 0 9.6 14.8 17.5 45.4 33.3 112.3
24 10:00 37.5 10 4.5 0.7 13 20 1005 0 10.2 15.2 18.5 47.8 36.2 122.4
24 09:50 37.5 10 4.5 0.7 15 17 1005 0 10.2 15.2 18.5 47.8 36.2 122.4
24 09:40 36.5 9 3.85 -1.4 13 13 1005.1 0 8.9 14.7 17.0 44.0 31.2 104.8
24 09:30 35.7 9 3.69 -2 11 15 1005.3 0 8.6 14.7 16.8 43.4 30.2 101.1
24 09:20 35.9 9 3.73 -1.9 9 11 1005.2 0 8.7 14.7 16.9 43.5 30.4 102.0
24 09:10 35.7 9 3.69 -2 9 9 1005.2 0 8.6 14.7 16.8 43.4 30.2 101.0
24 09:00 35.1 9 3.58 -2.5 9 11 1005.3 0 8.4 14.7 16.6 42.9 29.5 98.5
24 08:50 34.6 9 3.49 -2.9 11 11 1005.1 0 8.2 14.6 16.5 42.6 28.9 96.4
24 08:40 33.1 11 3.94 -1.3 9 11 1005.1 0 9.2 15.3 17.9 46.4 33.2 111.6
24 08:30 32 11 3.71 -2.1 9 11 1005.1 0 8.8 15.3 17.6 45.4 31.6 106.0
24 08:20 31 12 3.84 -1.7 11 11 1005.1 0 9.0 15.6 18.1 46.8 33.1 111.2
24 08:10 29.7 13 3.88 -1.6 7 9 1005 0 9.2 15.8 18.5 47.8 34.0 114.1
24 08:00 29.3 14 4.09 -0.9 9 11 1005.1 0 9.6 16.1 19.2 49.6 36.0 121.3
24 07:50 28.7 14 3.96 -1.4 9 9 1004.9 0 9.3 16.1 18.9 48.9 35.1 117.9
24 07:40 28.4 14 3.89 -1.6 11 11 1004.8 0 9.2 16.0 18.8 48.6 34.6 116.1
24 07:30 27.5 15 3.97 -1.4 9 13 1004.8 0 9.4 16.3 19.2 49.7 35.7 119.9
24 07:20 26.5 16 4.01 -1.3 9 11 1004.7 0 9.5 16.5 19.5 50.6 36.5 122.6
24 07:10 26.4 16 3.98 -1.4 11 11 1004.5 0 9.4 16.4 19.5 50.4 36.3 121.7
24 07:00 26.1 17 4.16 -0.8 7 11 1004.5 0 9.8 16.7 20.1 51.9 38.1 128.1
24 06:50 25.7 19 4.55 0.4 7 7 1004.3 0 10.6 17.2 21.3 55.2 42.0 141.8
24 06:40 26.6 18 4.53 0.4 0 0 1004.3 0 10.6 17.0 21.0 54.4 41.3 139.6
24 06:30 27.5 18 4.76 1.1 0 0 1004.3 0 11.0 17.2 21.4 55.6 43.0 145.8
24 06:20 27.7 18 4.82 1.2 0 0 1004.1 0 11.1 17.2 21.5 55.9 43.5 147.4
24 06:10 28.2 15 4.12 -0.9 0 0 1004 0 9.7 16.3 19.5 50.3 36.8 123.7
24 06:00 27.8 15 4.03 -1.2 6 9 1004 0 9.5 16.3 19.3 49.9 36.1 121.3
24 05:50 28.5 14 3.91 -1.6 7 7 1003.8 0 9.2 16.0 18.8 48.6 34.7 116.5
24 05:40 28.9 13 3.71 -2.3 7 9 1003.7 0 8.8 15.7 18.2 46.9 32.8 109.6
24 05:30 30 12 3.64 -2.5 11 15 1003.7 0 8.7 15.5 17.8 45.8 31.7 106.1
24 05:20 31.6 11 3.64 -2.4 13 15 1003.5 0 8.6 15.2 17.4 45.0 31.1 104.2
24 04:50 31.3 11 3.58 -2.6 15 17 1003.4 0 8.5 15.2 17.3 44.7 30.7 102.7
24 04:40 31 12 3.84 -1.7 13 15 1003.5 0 9.0 15.5 18.1 46.7 33.1 111.0
24 04:30 30.5 12 3.74 -2.1 9 11 1003.6 0 8.8 15.5 17.9 46.3 32.4 108.6
24 04:20 30.6 12 3.76 -2 7 9 1003.6 0 8.9 15.5 18.0 46.4 32.5 109.1
24 04:10 30.9 11 3.5 -3 7 9 1003.6 0 8.3 15.2 17.2 44.4 30.2 100.7
24 04:00 31.6 11 3.64 -2.4 13 17 1003.6 0 8.6 15.2 17.4 45.0 31.1 104.2
24 03:50 31.5 11 3.62 -2.5 15 17 1003.6 0 8.6 15.2 17.4 44.9 31.0 103.7
24 03:40 31.4 11 3.6 -2.6 13 15 1003.7 0 8.5 15.2 17.4 44.8 30.9 103.2
24 03:30 31.3 11 3.58 -2.6 15 17 1003.9 0 8.5 15.2 17.3 44.8 30.7 102.7
24 03:20 31.5 12 3.95 -1.3 15 17 1003.8 0 9.3 15.6 18.3 47.2 33.9 113.8
24 03:10 31.6 12 3.97 -1.2 15 17 1003.9 0 9.3 15.6 18.3 47.3 34.0 114.3
24 03:00 31.9 12 4.03 -1 15 17 1004 0 9.4 15.6 18.4 47.6 34.4 115.8
24 02:50 31.7 12 3.99 -1.2 13 17 1004 0 9.3 15.6 18.3 47.4 34.1 114.8

Last Refresh: 24-Jan-2021 19:46:19

Most of the information presented on this site is sourced from the Bureau of Meteorology.  Copyright in all material sourced from the Bureau of Meteorology resides with the Commonwealth of Australia.